Time;durP1;ratioP1;P1;durP2;ratioP2;P2;SDS_P1;SDS_P2;PMS_P1;PMS_P2;Temp;Humidity;BMP_temperature;BMP_pressure;BME280_temperature;BME280_humidity;BME280_pressure;Samples;Min_cycle;Max_cycle;Signal;HPM_P1;HPM_P2
2024/01/27 00:00:55;;;;;;;10.20;3.90;;;;;;;-145.69;67.31;52373.09;5135288;27;20193;-81
2024/01/27 00:03:23;;;;;;;5.10;3.60;;;;;;;-145.69;67.20;52396.84;5135755;27;20235;-81
2024/01/27 00:05:52;;;;;;;6.53;3.60;;;;;;;-145.69;67.42;52349.31;5134964;27;20212;-81
2024/01/27 00:08:21;;;;;;;6.37;3.30;;;;;;;-145.69;67.63;52369.13;5135228;27;20223;-81
2024/01/27 00:10:52;;;;;;;13.67;3.20;;;;;;;-145.69;69.12;52369.13;5135170;27;20205;-81
2024/01/27 00:13:20;;;;;;;13.40;3.73;;;;;;;-145.69;69.36;52361.22;5135350;27;20274;-82
2024/01/27 00:15:47;;;;;;;6.70;3.00;;;;;;;-145.69;69.61;52367.16;5135041;27;20197;-82
2024/01/27 00:18:19;;;;;;;8.17;2.70;;;;;;;-145.69;69.34;52317.66;5135176;27;20207;-80
2024/01/27 00:20:46;;;;;;;8.47;2.90;;;;;;;-145.69;69.41;52377.06;5134961;27;20651;-80
2024/01/27 00:23:12;;;;;;;4.60;2.73;;;;;;;-145.69;69.23;52351.31;5134860;27;20217;-80
2024/01/27 00:25:39;;;;;;;13.10;3.20;;;;;;;-145.69;69.58;52373.09;5134636;27;20555;-81
2024/01/27 00:28:09;;;;;;;3.47;2.57;;;;;;;-145.69;69.05;52375.06;5134901;27;20193;-80
2024/01/27 00:30:37;;;;;;;8.50;2.73;;;;;;;-145.69;69.39;52392.91;5134997;27;20188;-80
2024/01/27 00:33:05;;;;;;;4.50;2.53;;;;;;;-145.69;69.48;52353.28;5135087;27;20193;-80
2024/01/27 00:35:31;;;;;;;8.43;2.70;;;;;;;-145.69;69.60;52365.16;5134883;27;20279;-80
2024/01/27 00:38:02;;;;;;;3.73;2.50;;;;;;;-145.69;69.15;52371.13;5134567;27;20192;-80
2024/01/27 00:40:33;;;;;;;5.03;2.77;;;;;;;-145.69;69.20;52381.00;5134355;27;20662;-80
2024/01/27 00:43:00;;;;;;;3.07;2.10;;;;;;;-145.69;69.59;52381.00;5134291;27;20771;-80
2024/01/27 00:45:29;;;;;;;2.90;2.00;;;;;;;-145.69;69.59;52383.00;5134645;27;20731;-80
2024/01/27 00:47:56;;;;;;;5.30;2.30;;;;;;;-145.69;69.17;52357.25;5133750;27;20215;-80
2024/01/27 00:50:23;;;;;;;4.87;2.00;;;;;;;-145.69;68.94;52369.13;5133205;27;20244;-80
2024/01/27 00:52:55;;;;;;;5.20;2.60;;;;;;;-145.69;68.79;52373.09;5134853;27;20264;-80
2024/01/27 00:55:22;;;;;;;6.00;2.40;;;;;;;-145.69;68.78;52357.25;5133992;27;20670;-80
2024/01/27 00:57:50;;;;;;;5.07;2.30;;;;;;;-145.69;67.78;52351.31;5134407;27;20212;-80
2024/01/27 01:00:22;;;;;;;2.23;1.70;;;;;;;-145.69;67.75;52345.38;5133481;27;20196;-81
2024/01/27 01:02:50;;;;;;;4.30;2.17;;;;;;;-145.69;67.53;52371.13;5134218;27;20256;-80
2024/01/27 01:05:33;;;;;;;5.93;2.33;;;;;;;-145.69;67.71;52361.22;5133830;27;20309;-80
2024/01/27 01:07:59;;;;;;;6.27;2.80;;;;;;;-145.69;67.98;52349.31;5134438;27;20201;-80
2024/01/27 01:10:26;;;;;;;5.53;2.60;;;;;;;-145.69;68.57;52359.22;5134137;27;20188;-80
2024/01/27 01:12:54;;;;;;;5.37;2.20;;;;;;;-145.69;68.67;52388.94;5134042;27;20216;-80
2024/01/27 01:15:24;;;;;;;6.23;2.03;;;;;;;-145.69;68.70;52369.13;5133871;27;20212;-80
2024/01/27 01:17:51;;;;;;;3.17;2.17;;;;;;;-145.69;68.29;52361.22;5133527;27;20203;-79
2024/01/27 01:20:21;;;;;;;4.47;1.90;;;;;;;-145.69;67.35;52392.91;5134130;27;20200;-80
2024/01/27 01:22:49;;;;;;;1.93;1.60;;;;;;;-145.69;67.37;52384.97;5133665;27;20231;-79
2024/01/27 01:25:20;;;;;;;3.63;2.33;;;;;;;-145.69;66.83;52386.97;5134021;27;20200;-80
2024/01/27 01:27:50;;;;;;;4.90;2.00;;;;;;;-145.69;67.05;52402.78;5133669;27;20224;-80
2024/01/27 01:30:17;;;;;;;7.13;2.20;;;;;;;-145.69;67.61;52365.16;5133387;27;20196;-80
2024/01/27 01:32:43;;;;;;;4.53;2.50;;;;;;;-145.69;67.67;52388.94;5133601;27;20192;-80
2024/01/27 01:35:15;;;;;;;4.37;2.40;;;;;;;-145.69;67.33;52396.84;5133443;27;20223;-79
2024/01/27 01:37:51;;;;;;;4.17;2.17;;;;;;;-145.69;67.11;52388.94;5133242;27;20201;-79
2024/01/27 01:40:18;;;;;;;3.93;2.23;;;;;;;-145.69;67.16;52412.69;5126143;27;20207;-79
2024/01/27 01:42:51;;;;;;;7.30;1.90;;;;;;;-145.69;66.98;52408.75;5133799;27;20267;-79
2024/01/27 01:45:21;;;;;;;4.50;2.00;;;;;;;-145.69;66.93;52424.59;5133461;27;20197;-79
2024/01/27 01:47:53;;;;;;;6.83;2.47;;;;;;;-145.69;67.45;52355.28;5133756;27;20200;-80
2024/01/27 01:50:22;;;;;;;7.00;2.90;;;;;;;-145.69;67.60;52412.69;5132954;27;20239;-80
2024/01/27 01:52:55;;;;;;;6.77;2.27;;;;;;;-145.69;67.63;52388.94;5133020;27;20235;-80
2024/01/27 01:55:21;;;;;;;5.77;2.43;;;;;;;-145.69;67.04;52392.91;5133646;27;20229;-80
2024/01/27 01:57:48;;;;;;;7.30;2.87;;;;;;;-145.69;67.02;52404.78;5133396;27;20192;-81
2024/01/27 02:00:17;;;;;;;5.13;2.37;;;;;;;-145.69;66.38;52384.97;5133490;27;20235;-79
2024/01/27 02:02:45;;;;;;;3.77;2.00;;;;;;;-145.69;66.71;52375.06;5133455;27;20260;-80
2024/01/27 02:05:14;;;;;;;5.43;2.70;;;;;;;-145.69;66.80;52390.91;5133435;27;20201;-79
2024/01/27 02:07:44;;;;;;;5.43;2.70;;;;;;;-145.69;66.73;52416.66;5133742;27;20244;-81
2024/01/27 02:10:19;;;;;;;6.40;2.40;;;;;;;-145.69;67.57;52371.13;5133091;27;20197;-81
2024/01/27 02:12:49;;;;;;;7.70;2.37;;;;;;;-145.69;67.40;52396.84;5133080;27;20189;-81
2024/01/27 02:15:15;;;;;;;7.50;3.20;;;;;;;-145.69;67.50;52434.47;5133043;27;20437;-80
2024/01/27 02:17:45;;;;;;;4.30;2.57;;;;;;;-145.69;67.00;52392.91;5133277;27;20196;-81
2024/01/27 02:20:12;;;;;;;10.50;2.73;;;;;;;-145.69;66.60;52432.50;5132998;27;20714;-81
2024/01/27 02:22:42;;;;;;;6.83;2.50;;;;;;;-145.69;66.86;52412.69;5133194;27;20223;-81
2024/01/27 02:25:12;;;;;;;5.13;2.50;;;;;;;-145.69;66.02;52408.75;5133347;28;20607;-81
2024/01/27 02:27:42;;;;;;;6.23;2.60;;;;;;;-145.69;66.77;52432.50;5132917;27;20203;-81
2024/01/27 02:30:09;;;;;;;8.87;2.93;;;;;;;-145.69;67.24;52424.59;5132619;27;20196;-81
2024/01/27 02:32:43;;;;;;;7.30;2.90;;;;;;;-145.69;66.37;52396.84;5133117;27;20223;-80
2024/01/27 02:35:11;;;;;;;7.33;3.43;;;;;;;-145.69;66.87;52434.47;5133227;27;20566;-81
2024/01/27 02:37:37;;;;;;;8.73;3.10;;;;;;;-145.69;67.93;52384.97;5133022;27;20547;-81
2024/01/27 02:40:12;;;;;;;8.43;2.97;;;;;;;-145.69;67.61;52384.97;5132994;27;20208;-81
2024/01/27 02:42:41;;;;;;;4.83;2.47;;;;;;;-145.69;67.89;52408.75;5133075;27;20704;-80
2024/01/27 02:45:11;;;;;;;6.33;2.90;;;;;;;-145.69;67.51;52404.78;5131878;27;20188;-81
2024/01/27 02:47:40;;;;;;;6.30;3.07;;;;;;;-145.69;67.38;52392.91;5112449;28;20234;-80
2024/01/27 02:50:08;;;;;;;5.87;2.80;;;;;;;-145.69;68.25;52404.78;5124854;27;20228;-81
2024/01/27 02:52:35;;;;;;;7.93;3.30;;;;;;;-145.69;67.61;52400.81;5136783;27;20201;-81
2024/01/27 02:55:04;;;;;;;5.77;2.60;;;;;;;-145.69;66.77;52404.78;5136816;27;20204;-81
2024/01/27 02:57:31;;;;;;;8.83;3.27;;;;;;;-145.69;67.53;52412.69;5136824;27;20200;-81
2024/01/27 02:59:59;;;;;;;5.57;3.23;;;;;;;-145.69;67.70;52377.06;5136601;27;20568;-81
2024/01/27 03:02:25;;;;;;;6.87;3.10;;;;;;;-145.69;67.45;52440.44;5136625;27;20259;-79
2024/01/27 03:05:03;;;;;;;7.43;2.83;;;;;;;-145.69;66.56;52404.78;5136559;27;20655;-81
2024/01/27 03:07:32;;;;;;;8.30;3.07;;;;;;;-145.69;67.01;52406.75;5136091;27;20265;-81
2024/01/27 03:09:58;;;;;;;7.80;3.00;;;;;;;-145.69;67.57;52404.78;5132900;27;20605;-81
2024/01/27 03:12:25;;;;;;;6.43;3.00;;;;;;;-145.69;67.63;52406.75;5136213;27;20663;-81
2024/01/27 03:14:51;;;;;;;7.83;3.13;;;;;;;-145.69;68.60;52414.69;5136642;27;20283;-81
2024/01/27 03:17:22;;;;;;;9.07;3.37;;;;;;;-145.69;68.36;52420.63;5136796;27;20643;-81
2024/01/27 03:19:48;;;;;;;11.50;3.80;;;;;;;-145.69;68.34;52428.53;5135809;27;20196;-81
2024/01/27 03:22:15;;;;;;;14.77;4.03;;;;;;;-145.69;68.17;52416.66;5136290;27;20203;-81
2024/01/27 03:24:41;;;;;;;7.07;2.90;;;;;;;-145.69;67.74;52400.81;5136551;27;20296;-80
2024/01/27 03:27:09;;;;;;;6.60;3.43;;;;;;;-145.69;68.43;52440.44;5136157;27;20597;-78
2024/01/27 03:29:36;;;;;;;8.33;3.37;;;;;;;-145.69;68.23;52408.75;5136047;27;20247;-82
2024/01/27 03:32:05;;;;;;;5.87;3.17;;;;;;;-145.69;67.42;52392.91;5136146;27;20200;-79
2024/01/27 03:34:33;;;;;;;7.37;3.87;;;;;;;-145.69;68.00;52412.69;5136265;27;20197;-80
2024/01/27 03:36:59;;;;;;;10.03;3.60;;;;;;;-145.69;68.20;52428.53;5135948;27;20245;-81
2024/01/27 03:39:26;;;;;;;9.70;3.57;;;;;;;-145.69;68.13;52406.75;5136114;27;20231;-79
2024/01/27 03:41:52;;;;;;;5.67;3.40;;;;;;;-145.69;67.97;52404.78;5135435;27;20232;-81
2024/01/27 03:44:19;;;;;;;13.33;3.27;;;;;;;-145.69;67.80;52424.59;5135055;27;20231;-81
2024/01/27 03:46:49;;;;;;;7.87;3.60;;;;;;;-145.69;67.46;52402.78;5135756;27;20204;-82
2024/01/27 03:49:15;;;;;;;13.57;3.60;;;;;;;-145.69;67.82;52432.50;5135662;27;20464;-80
2024/01/27 03:51:47;;;;;;;8.50;3.50;;;;;;;-145.69;67.90;52422.59;5135755;27;20189;-80
2024/01/27 03:54:13;;;;;;;8.37;3.30;;;;;;;-145.69;67.61;52426.56;5135291;27;20192;-79
2024/01/27 03:56:43;;;;;;;10.47;3.30;;;;;;;-145.69;67.80;52438.44;5135739;27;20200;-80
2024/01/27 03:59:11;;;;;;;5.67;3.20;;;;;;;-145.69;67.15;52384.97;5135700;27;20201;-80
2024/01/27 04:01:38;;;;;;;13.37;3.90;;;;;;;-145.69;67.33;52448.34;5134513;27;20197;-80
2024/01/27 04:04:05;;;;;;;11.20;3.03;;;;;;;-145.69;67.80;52448.34;5135332;27;20252;-81
2024/01/27 04:06:37;;;;;;;6.93;3.27;;;;;;;-145.69;67.93;52424.59;5135390;27;20201;-80
2024/01/27 04:09:08;;;;;;;6.90;3.80;;;;;;;-145.69;68.10;52442.41;5135060;27;20204;-80
2024/01/27 04:11:38;;;;;;;5.00;3.17;;;;;;;-145.69;68.08;52414.69;5135317;27;20242;-81
2024/01/27 04:14:08;;;;;;;4.47;2.67;;;;;;;-145.69;68.20;52398.84;5135686;27;20212;-80
2024/01/27 04:16:35;;;;;;;7.83;3.47;;;;;;;-145.69;68.83;52438.44;5135097;27;20253;-81
2024/01/27 04:19:01;;;;;;;12.87;4.80;;;;;;;-145.69;68.79;52396.84;5135113;27;20188;-82
2024/01/27 04:21:28;;;;;;;10.63;4.60;;;;;;;-145.69;68.82;52408.75;5134917;27;20203;-81
2024/01/27 04:23:54;;;;;;;10.43;4.50;;;;;;;-145.69;68.65;52428.53;5135102;27;20239;-82
2024/01/27 04:26:22;;;;;;;9.77;3.83;;;;;;;-145.69;68.56;52392.91;5135080;27;20288;-80
2024/01/27 04:28:49;;;;;;;9.27;4.20;;;;;;;-145.69;68.76;52418.63;5134776;27;20201;-81
2024/01/27 04:31:17;;;;;;;7.70;3.10;;;;;;;-145.69;67.58;52440.44;5134798;27;20201;-80
2024/01/27 04:33:44;;;;;;;6.77;3.57;;;;;;;-145.69;67.75;52400.81;5134930;27;20878;-80
2024/01/27 04:36:11;;;;;;;8.43;3.13;;;;;;;-145.69;67.81;52440.44;5134810;27;20197;-80
2024/01/27 04:38:37;;;;;;;5.97;3.10;;;;;;;-145.69;67.43;52418.63;5134582;27;20201;-80
2024/01/27 04:41:04;;;;;;;5.60;3.13;;;;;;;-145.69;67.32;52404.78;5134544;27;20593;-79
2024/01/27 04:43:31;;;;;;;7.50;3.67;;;;;;;-145.69;67.41;52438.44;5134425;27;20232;-81
2024/01/27 04:45:58;;;;;;;11.00;3.77;;;;;;;-145.69;66.90;52404.78;5134769;27;20214;-80
2024/01/27 04:48:24;;;;;;;15.40;4.63;;;;;;;-145.69;66.76;52450.31;5117431;27;20585;-80
2024/01/27 04:50:51;;;;;;;10.37;4.93;;;;;;;-145.69;66.85;52426.56;5122070;27;20250;-80
2024/01/27 04:53:17;;;;;;;14.23;3.80;;;;;;;-145.69;67.18;52438.44;5134415;27;20196;-79
2024/01/27 04:55:44;;;;;;;9.90;4.13;;;;;;;-145.69;67.18;52428.53;5134040;27;20197;-80
2024/01/27 04:58:10;;;;;;;6.57;3.43;;;;;;;-145.69;67.03;52424.59;5133995;27;20197;-79
2024/01/27 05:00:41;;;;;;;14.37;3.97;;;;;;;-145.69;67.05;52408.75;5134097;27;20200;-82
2024/01/27 05:03:13;;;;;;;10.93;3.53;;;;;;;-145.69;67.86;52404.78;5133917;27;20709;-81
2024/01/27 05:05:42;;;;;;;10.30;4.37;;;;;;;-145.69;66.75;52404.78;5134211;27;20288;-81
2024/01/27 05:08:08;;;;;;;10.03;3.83;;;;;;;-145.69;67.15;52424.59;5134235;27;20203;-81
2024/01/27 05:10:35;;;;;;;12.23;4.17;;;;;;;-145.69;67.25;52410.72;5133759;27;20199;-80
2024/01/27 05:13:01;;;;;;;11.07;4.00;;;;;;;-145.69;67.09;52444.38;5132685;27;20683;-79
2024/01/27 05:15:28;;;;;;;15.63;4.73;;;;;;;-145.69;67.58;52402.78;5133769;27;20192;-81
2024/01/27 05:17:56;;;;;;;10.60;4.13;;;;;;;-145.69;67.35;52377.06;5134238;27;20208;-81
2024/01/27 05:20:22;;;;;;;16.57;4.90;;;;;;;-145.69;68.73;52432.50;5134028;27;20196;-81
2024/01/27 05:22:49;;;;;;;8.77;4.33;;;;;;;-145.69;67.40;52434.47;5133916;27;20193;-81
2024/01/27 05:25:16;;;;;;;12.53;4.93;;;;;;;-145.69;66.46;52416.66;5132599;27;20203;-81
2024/01/27 05:27:43;;;;;;;8.97;3.70;;;;;;;-145.69;66.52;52410.72;5133495;27;20712;-81
2024/01/27 05:30:13;;;;;;;9.83;3.53;;;;;;;-145.69;66.42;52396.84;5133489;27;20302;-79
2024/01/27 05:32:40;;;;;;;9.37;3.73;;;;;;;-145.69;67.23;52434.47;5133846;27;20207;-81
2024/01/27 05:35:10;;;;;;;9.57;4.13;;;;;;;-145.69;67.20;52440.44;5132712;27;20192;-79
2024/01/27 05:37:38;;;;;;;18.90;5.03;;;;;;;-145.69;67.48;52460.22;5133118;27;20219;-80
2024/01/27 05:40:06;;;;;;;7.57;3.93;;;;;;;-145.69;66.78;52428.53;5133102;27;20596;-80
2024/01/27 05:42:32;;;;;;;9.80;4.72;;;;;;;-145.69;67.53;52412.69;5133158;27;20441;-80
2024/01/27 05:44:59;;;;;;;11.10;3.87;;;;;;;-145.69;67.18;52412.69;5133377;27;20702;-80
2024/01/27 05:47:25;;;;;;;7.80;3.63;;;;;;;-145.69;67.06;52462.22;5133697;27;20563;-82
2024/01/27 05:49:52;;;;;;;9.47;3.67;;;;;;;-145.69;67.57;52424.59;5133176;27;20617;-82
2024/01/27 05:52:20;;;;;;;9.43;3.83;;;;;;;-145.69;67.78;52408.75;5133197;27;20204;-81
2024/01/27 05:54:46;;;;;;;9.93;4.57;;;;;;;-145.69;67.34;52442.41;5133857;27;20211;-81
2024/01/27 05:57:13;;;;;;;14.47;4.10;;;;;;;-145.69;67.26;52440.44;5133607;27;20261;-81
2024/01/27 05:59:39;;;;;;;18.93;5.37;;;;;;;-145.69;67.20;52408.75;5133472;27;20544;-80
2024/01/27 06:02:06;;;;;;;12.37;4.50;;;;;;;-145.69;67.14;52440.44;5133331;27;20222;-80
2024/01/27 06:04:34;;;;;;;11.53;4.00;;;;;;;-145.69;67.18;52406.75;5133271;27;20274;-80
2024/01/27 06:07:01;;;;;;;10.23;3.90;;;;;;;-145.69;66.77;52428.53;5133347;28;20235;-82
2024/01/27 06:09:28;;;;;;;8.97;4.07;;;;;;;-145.69;66.24;52428.53;5133338;27;20536;-82
2024/01/27 06:11:59;;;;;;;11.37;4.60;;;;;;;-145.69;66.13;52448.34;5133368;28;20197;-81
2024/01/27 06:14:26;;;;;;;7.53;4.43;;;;;;;-145.69;67.20;52430.53;5133675;27;20204;-82
2024/01/27 06:16:52;;;;;;;11.90;4.83;;;;;;;-145.69;67.28;52440.44;5132986;27;20208;-82
2024/01/27 06:19:19;;;;;;;13.37;5.13;;;;;;;-145.69;68.51;52428.53;5133164;28;20643;-82
2024/01/27 06:21:45;;;;;;;13.07;5.13;;;;;;;-145.69;68.50;52428.53;5133340;27;20204;-81
2024/01/27 06:24:15;;;;;;;14.23;5.10;;;;;;;-145.69;67.09;52420.63;5135079;27;20935;-81
2024/01/27 06:26:42;;;;;;;10.73;5.53;;;;;;;-145.69;67.07;52440.44;5136875;27;20197;-81
2024/01/27 06:29:09;;;;;;;12.13;5.40;;;;;;;-145.69;66.51;52416.66;5137213;27;20535;-81
2024/01/27 06:31:35;;;;;;;11.85;5.85;;;;;;;-145.69;67.32;52444.38;5136926;27;20436;-80
2024/01/27 06:34:06;;;;;;;15.23;5.60;;;;;;;-145.69;67.35;52426.56;5137379;27;20211;-80
2024/01/27 06:36:32;;;;;;;12.53;5.77;;;;;;;-145.69;67.38;52434.47;5137146;27;20604;-81
2024/01/27 06:38:59;;;;;;;16.43;5.53;;;;;;;-145.69;66.86;52420.63;5136671;27;20208;-81
2024/01/27 06:41:25;;;;;;;10.90;4.40;;;;;;;-145.69;66.54;52432.50;5137221;27;20235;-80
2024/01/27 06:43:53;;;;;;;8.40;4.57;;;;;;;-145.69;66.74;52458.25;5136695;27;20219;-82
2024/01/27 06:46:20;;;;;;;16.70;4.97;;;;;;;-145.69;66.56;52418.63;5136939;27;20197;-81
2024/01/27 06:48:46;;;;;;;14.73;4.57;;;;;;;-145.69;66.85;52438.44;5137006;27;20656;-81
2024/01/27 06:51:13;;;;;;;12.87;5.03;;;;;;;-145.69;67.25;52416.66;5136826;27;20196;-81
2024/01/27 06:53:39;;;;;;;10.73;5.20;;;;;;;-145.69;67.22;52448.34;5136400;27;20204;-81
2024/01/27 06:56:08;;;;;;;13.93;5.73;;;;;;;-145.69;67.30;52386.97;5137105;27;20208;-80
2024/01/27 06:58:36;;;;;;;12.40;5.60;;;;;;;-145.69;66.98;52412.69;5138752;27;20192;-81
2024/01/27 07:01:04;;;;;;;10.37;4.20;;;;;;;-145.69;66.84;52428.53;5136451;27;20261;-81
2024/01/27 07:03:30;;;;;;;9.00;4.53;;;;;;;-145.69;66.62;52444.38;5136340;27;20193;-81
2024/01/27 07:06:00;;;;;;;13.30;4.93;;;;;;;-145.69;66.79;52416.66;5136724;27;20228;-82
2024/01/27 07:08:29;;;;;;;15.17;5.00;;;;;;;-145.69;67.80;52448.34;5137124;27;20663;-82
2024/01/27 07:10:56;;;;;;;13.87;6.07;;;;;;;-145.69;67.48;52424.59;5136536;27;20279;-81
2024/01/27 07:13:22;;;;;;;16.77;5.50;;;;;;;-145.69;67.72;52428.53;5136639;27;20535;-81
2024/01/27 07:15:51;;;;;;;14.03;5.97;;;;;;;-145.69;67.96;52468.16;5136304;27;20203;-82
2024/01/27 07:18:19;;;;;;;13.90;6.13;;;;;;;-145.69;68.27;52424.59;5135863;27;20201;-81
2024/01/27 07:20:46;;;;;;;15.53;6.00;;;;;;;-145.69;68.74;52412.69;5136002;27;20204;-80
2024/01/27 07:23:12;;;;;;;17.30;6.83;;;;;;;-145.69;68.62;52408.75;5136431;27;20201;-81
2024/01/27 07:25:40;;;;;;;17.73;6.20;;;;;;;-145.69;67.87;52398.84;5136160;27;20576;-81
2024/01/27 07:28:07;;;;;;;16.13;5.73;;;;;;;-145.69;67.17;52448.34;5135481;27;20197;-81
2024/01/27 07:30:33;;;;;;;21.90;5.43;;;;;;;-145.69;66.76;52406.75;5136426;27;20199;-81
2024/01/27 07:33:00;;;;;;;11.03;5.00;;;;;;;-145.69;67.10;52448.34;5135744;27;20201;-81
2024/01/27 07:35:29;;;;;;;12.20;5.10;;;;;;;-145.69;66.82;52432.50;5135135;27;20212;-81
2024/01/27 07:37:56;;;;;;;16.07;5.27;;;;;;;-145.69;66.93;52426.56;5136001;27;20228;-82
2024/01/27 07:40:23;;;;;;;14.30;5.40;;;;;;;-145.69;67.30;52452.31;5136239;27;20276;-80
2024/01/27 07:42:51;;;;;;;10.67;5.33;;;;;;;-145.69;67.26;52424.59;5136509;27;20262;-82
2024/01/27 07:45:17;;;;;;;17.17;5.70;;;;;;;-145.69;67.23;52396.84;5135679;27;20224;-81
2024/01/27 07:47:44;;;;;;;14.90;6.63;;;;;;;-145.69;67.80;52422.59;5135672;27;20205;-81
2024/01/27 07:50:11;;;;;;;17.30;5.90;;;;;;;-145.69;67.15;52404.78;5135385;27;20244;-81
2024/01/27 07:52:39;;;;;;;21.87;6.73;;;;;;;-145.69;67.26;52462.22;5135899;27;20205;-81
2024/01/27 07:55:06;;;;;;;22.10;6.93;;;;;;;-145.69;67.78;52420.63;5135066;27;20197;-81
2024/01/27 07:57:32;;;;;;;17.03;6.60;;;;;;;-145.69;67.68;52424.59;5134969;27;20197;-81
2024/01/27 07:59:58;;;;;;;23.50;7.70;;;;;;;-145.69;67.51;52464.19;5135833;27;20216;-80
2024/01/27 08:02:26;;;;;;;21.47;5.97;;;;;;;-145.69;67.60;52406.75;5135463;27;20208;-81
2024/01/27 08:04:52;;;;;;;19.00;6.90;;;;;;;-145.69;68.23;52448.34;5135492;27;20220;-80
2024/01/27 08:07:19;;;;;;;14.40;6.83;;;;;;;-145.69;67.89;52444.38;5135122;27;20611;-81
2024/01/27 08:09:47;;;;;;;18.83;6.63;;;;;;;-145.69;67.23;52428.53;5134682;27;20228;-81
2024/01/27 08:12:13;;;;;;;22.88;8.95;;;;;;;-145.69;68.62;52430.53;5134033;27;20441;-81
2024/01/27 08:14:40;;;;;;;13.70;6.57;;;;;;;-145.69;67.65;52406.75;5135479;27;20192;-81
2024/01/27 08:17:06;;;;;;;17.90;6.70;;;;;;;-145.69;67.28;52394.88;5135167;27;20200;-81
2024/01/27 08:19:33;;;;;;;14.10;6.17;;;;;;;-145.69;67.50;52408.75;5135258;27;20645;-81
2024/01/27 08:21:59;;;;;;;11.77;5.50;;;;;;;-145.69;67.87;52400.81;5135614;27;20216;-81
2024/01/27 08:24:26;;;;;;;12.50;6.20;;;;;;;-145.69;67.70;52418.63;5134655;27;20220;-80
2024/01/27 08:26:53;;;;;;;14.30;5.33;;;;;;;-145.69;68.41;52438.44;5134935;27;20204;-81
2024/01/27 08:29:20;;;;;;;15.37;5.20;;;;;;;-145.69;67.83;52436.47;5134971;27;20200;-81
2024/01/27 08:31:46;;;;;;;17.27;6.00;;;;;;;-145.69;67.52;52444.38;5134805;27;20197;-81
2024/01/27 08:34:13;;;;;;;14.47;5.80;;;;;;;-145.69;67.80;52458.25;5134789;27;20197;-80
2024/01/27 08:36:40;;;;;;;12.07;5.57;;;;;;;-145.69;67.18;52424.59;5134921;27;20555;-81
2024/01/27 08:39:08;;;;;;;12.97;5.10;;;;;;;-145.69;67.79;52414.69;5134497;27;20266;-81
2024/01/27 08:41:35;;;;;;;14.37;5.60;;;;;;;-145.69;67.46;52410.72;5134682;27;20195;-81
2024/01/27 08:44:03;;;;;;;14.60;5.23;;;;;;;-145.69;67.33;52422.59;5134350;27;20207;-81
2024/01/27 08:46:29;;;;;;;14.10;5.43;;;;;;;-145.69;67.86;52402.78;5135233;27;20200;-81
2024/01/27 08:48:56;;;;;;;12.40;5.37;;;;;;;-145.69;67.87;52430.53;5134072;27;20232;-83
2024/01/27 08:51:22;;;;;;;12.30;4.47;;;;;;;-145.69;67.87;52424.59;5134492;27;20203;-80
2024/01/27 08:53:49;;;;;;;13.23;4.90;;;;;;;-145.69;68.10;52396.84;5133888;27;20197;-81
2024/01/27 08:56:16;;;;;;;12.07;4.33;;;;;;;-145.69;67.86;52416.66;5134636;27;20257;-81
2024/01/27 08:58:42;;;;;;;12.93;4.47;;;;;;;-145.69;67.92;52404.78;5134578;27;20204;-82
2024/01/27 09:01:12;;;;;;;17.50;5.23;;;;;;;-145.69;67.74;52412.69;5135130;27;20193;-81
2024/01/27 09:03:39;;;;;;;14.57;5.30;;;;;;;-145.69;67.90;52396.84;5135427;27;20227;-80
2024/01/27 09:06:06;;;;;;;15.27;4.60;;;;;;;-145.69;67.95;52424.59;5132745;27;20228;-80
2024/01/27 09:08:34;;;;;;;9.07;3.33;;;;;;;-145.69;67.59;52424.59;5134100;27;20211;-80
2024/01/27 09:11:00;;;;;;;6.53;2.50;;;;;;;-145.69;67.92;52428.53;5134422;27;20275;-80
2024/01/27 09:13:27;;;;;;;18.00;6.80;;;;;;;-145.69;68.45;52422.59;5133876;27;20197;-80
2024/01/27 09:15:53;;;;;;;11.97;4.03;;;;;;;-145.69;68.40;52400.81;5134347;27;20203;-79
2024/01/27 09:18:22;;;;;;;16.50;4.50;;;;;;;-145.69;68.83;52388.94;5131676;27;20197;-79
2024/01/27 09:20:48;;;;;;;13.53;4.80;;;;;;;-145.69;68.88;52410.72;5133897;27;20646;-80
2024/01/27 09:23:15;;;;;;;16.83;6.00;;;;;;;-145.69;68.39;52404.78;5133761;27;20199;-80
2024/01/27 09:25:42;;;;;;;19.00;6.20;;;;;;;-145.69;68.45;52418.63;5133176;27;20208;-81
2024/01/27 09:28:08;;;;;;;20.03;5.60;;;;;;;-145.69;68.00;52452.31;5113093;28;20204;-79
2024/01/27 09:30:35;;;;;;;9.37;4.53;;;;;;;-145.69;68.53;52412.69;5120486;27;20192;-79
2024/01/27 09:33:01;;;;;;;13.27;3.67;;;;;;;-145.69;68.33;52416.66;5132809;27;20197;-79
2024/01/27 09:35:29;;;;;;;14.83;3.87;;;;;;;-145.69;68.45;52408.75;5133761;27;20265;-79
2024/01/27 09:37:56;;;;;;;16.83;4.40;;;;;;;-145.69;68.72;52394.88;5133914;27;20197;-81
2024/01/27 09:40:22;;;;;;;11.97;3.60;;;;;;;-145.69;68.66;52404.78;5133177;27;20197;-80
2024/01/27 09:42:52;;;;;;;8.33;3.50;;;;;;;-145.69;68.76;52404.78;5133791;27;20204;-80
2024/01/27 09:45:20;;;;;;;9.23;3.70;;;;;;;-145.69;69.09;52367.16;5133739;27;20224;-81
2024/01/27 09:47:47;;;;;;;15.00;4.57;;;;;;;-145.69;69.15;52377.06;5133361;27;20205;-80
2024/01/27 09:50:15;;;;;;;10.23;4.23;;;;;;;-145.69;69.23;52392.91;5132999;27;20239;-81
2024/01/27 09:52:43;;;;;;;16.97;4.67;;;;;;;-145.69;69.09;52383.00;5133579;27;20208;-79
2024/01/27 09:55:10;;;;;;;21.00;5.80;;;;;;;-145.69;69.39;52416.66;5133128;27;20197;-79
2024/01/27 09:57:38;;;;;;;14.67;4.93;;;;;;;-145.69;68.88;52400.81;5132629;27;20204;-80
2024/01/27 10:00:06;;;;;;;12.07;4.80;;;;;;;-145.69;69.19;52402.78;5133388;27;20200;-80
2024/01/27 10:02:34;;;;;;;10.47;4.63;;;;;;;-145.69;69.14;52400.81;5113056;28;20517;-79
2024/01/27 10:05:02;;;;;;;12.20;4.03;;;;;;;-145.69;69.29;52398.84;5119773;27;21799;-79
2024/01/27 10:07:29;;;;;;;12.13;3.77;;;;;;;-145.69;68.52;52392.91;5133444;27;20200;-77
2024/01/27 10:09:57;;;;;;;12.00;3.20;;;;;;;-145.69;68.96;52381.00;5133315;28;20200;-79
2024/01/27 10:12:25;;;;;;;10.73;2.60;;;;;;;-145.69;68.84;52410.72;5133398;27;20201;-78
2024/01/27 10:14:52;;;;;;;11.37;2.97;;;;;;;-145.69;68.28;52398.84;5132821;27;20208;-77
2024/01/27 10:17:23;;;;;;;7.10;2.83;;;;;;;-145.69;68.62;52388.94;5133539;28;20205;-77
2024/01/27 10:20:00;;;;;;;13.53;3.50;;;;;;;-145.69;68.27;52357.25;5124655;28;20196;-80
2024/01/27 10:22:27;;;;;;;12.73;3.20;;;;;;;-145.69;68.74;52379.03;5133492;27;20231;-78
2024/01/27 10:24:54;;;;;;;11.40;3.37;;;;;;;-145.69;68.58;52408.75;5132993;27;20227;-78
2024/01/27 10:27:22;;;;;;;9.50;3.37;;;;;;;-145.69;68.07;52381.00;5133147;27;20195;-78
2024/01/27 10:29:53;;;;;;;10.33;3.30;;;;;;;-145.69;68.23;52428.53;5132779;28;20204;-80
2024/01/27 10:32:19;;;;;;;8.10;3.40;;;;;;;-145.69;68.34;52408.75;5132000;28;20246;-79
2024/01/27 10:34:45;;;;;;;9.57;2.53;;;;;;;-145.69;68.10;52386.97;5133036;28;20205;-79
2024/01/27 10:37:13;;;;;;;8.13;2.50;;;;;;;-145.69;68.36;52386.97;5132586;28;20266;-81
2024/01/27 10:39:39;;;;;;;5.80;2.93;;;;;;;-145.69;68.24;52402.78;5133068;27;20193;-81
2024/01/27 10:42:07;;;;;;;5.37;2.50;;;;;;;-145.69;68.44;52392.91;5132943;28;20197;-81
2024/01/27 10:44:38;;;;;;;10.43;2.57;;;;;;;-145.69;68.05;52408.75;5133103;28;20197;-79
2024/01/27 10:47:06;;;;;;;4.23;2.27;;;;;;;-145.69;67.96;52367.16;5132519;27;20197;-81
2024/01/27 10:49:37;;;;;;;12.90;2.53;;;;;;;-145.69;68.18;52408.75;5131425;28;20277;-80
2024/01/27 10:52:12;;;;;;;6.97;2.10;;;;;;;-145.69;67.67;52386.97;5132498;27;20525;-80
2024/01/27 10:54:41;;;;;;;8.63;2.90;;;;;;;-145.69;67.73;52400.81;5133026;27;20196;-81
2024/01/27 10:57:10;;;;;;;6.63;2.30;;;;;;;-145.69;68.02;52373.09;5132551;27;20231;-81
2024/01/27 10:59:40;;;;;;;9.77;2.30;;;;;;;-145.69;68.18;52381.00;5132983;27;20214;-80
2024/01/27 11:02:14;;;;;;;9.60;2.50;;;;;;;-145.69;68.33;52384.97;5132966;27;20192;-79
2024/01/27 11:04:43;;;;;;;6.20;2.07;;;;;;;-145.69;67.63;52361.22;5132545;27;20195;-79
2024/01/27 11:07:10;;;;;;;11.83;2.00;;;;;;;-145.69;67.95;52408.75;5131668;27;20639;-80
2024/01/27 11:09:41;;;;;;;5.53;2.27;;;;;;;-145.69;67.95;52383.00;5132553;27;20192;-79
2024/01/27 11:12:13;;;;;;;7.23;2.60;;;;;;;-145.69;67.94;52373.09;5136668;27;20201;-79
2024/01/27 11:14:41;;;;;;;4.70;2.10;;;;;;;-145.69;66.84;52408.75;5136554;27;20204;-80
2024/01/27 11:17:08;;;;;;;5.97;2.37;;;;;;;-145.69;66.06;52371.13;5136499;27;20201;-80